Thaleia — OJ8123 — position and weather

sailwx.info

Track history (hours):
 
Tides and Currents Weather Stations Pressure Air Temp Water Temp Dewpoint Dewpoint Depression Visibility Wind Speed Wind Dir Waves Ship Positions

Thaleia

Last reported at 2017-Jul-22 20:26 UTC. Time now 2017-Jul-22 20:30 UTC.
Position N 39°30' E 002°45'.

Length 15 m.

Type: Sailing vessel. MMSI: 230939950.

Date/timePositionNaut miles runAvg speedWind from/ knotsBaromVisibWave heightAir tempDewpointWater temp
2017-Jul-22 20:26N 39°30' E 002°45'0 0.0
2017-Jul-22 19:59N 39°30' E 002°45'0 0.0
2017-Jul-22 19:29N 39°30' E 002°45'0 0.0
2017-Jul-22 18:59N 39°30' E 002°45'0 0.0
2017-Jul-22 18:29N 39°30' E 002°45'0 0.0
2017-Jul-22 17:59N 39°30' E 002°45'0 0.0
2017-Jul-22 17:29N 39°30' E 002°45'0 0.0
2017-Jul-22 16:59N 39°30' E 002°45'0 0.0
2017-Jul-22 16:26N 39°30' E 002°45'0 0.0
2017-Jul-22 15:59N 39°30' E 002°45'0 0.0
2017-Jul-22 15:29N 39°30' E 002°45'0 0.0
2017-Jul-22 14:59N 39°30' E 002°45'0 0.0
2017-Jul-22 13:59N 39°30' E 002°45'0 0.0
2017-Jul-22 13:26N 39°30' E 002°45'0 0.0
2017-Jul-22 12:59N 39°30' E 002°45'0 0.0
2017-Jul-22 12:26N 39°30' E 002°45'0 0.0
2017-Jul-22 11:59N 39°30' E 002°45'0 0.0
2017-Jul-22 11:26N 39°30' E 002°45'0 0.0
2017-Jul-22 10:59N 39°30' E 002°45'0 0.0
2017-Jul-22 10:29N 39°30' E 002°45'0 0.0
2017-Jul-22 09:59N 39°30' E 002°45'0 0.0
2017-Jul-22 09:29N 39°30' E 002°45'0 0.0
2017-Jul-22 08:59N 39°30' E 002°45'0 0.0
2017-Jul-22 08:29N 39°30' E 002°45'0 0.0
2017-Jul-22 07:59N 39°30' E 002°45'0 0.0
2017-Jul-22 07:26N 39°30' E 002°45'0 0.0
2017-Jul-22 06:56N 39°30' E 002°45'0 0.0
2017-Jul-22 06:29N 39°30' E 002°45'0 0.0
2017-Jul-22 05:59N 39°30' E 002°45'0 0.0
2017-Jul-22 05:26N 39°30' E 002°45'0 0.0
2017-Jul-22 04:59N 39°30' E 002°45'0 0.0
2017-Jul-22 04:29N 39°30' E 002°45'0 0.0
2017-Jul-22 03:59N 39°30' E 002°45'0 0.0
2017-Jul-22 03:29N 39°30' E 002°45'0 0.0
2017-Jul-22 02:56N 39°30' E 002°45'0 0.0
2017-Jul-22 02:29N 39°30' E 002°45'0 0.0
2017-Jul-22 01:59N 39°30' E 002°45'0 0.0
2017-Jul-22 01:29N 39°30' E 002°45'0 0.0
2017-Jul-22 00:59N 39°30' E 002°45'0 0.0
2017-Jul-22 00:29N 39°30' E 002°45'0 0.0
2017-Jul-21 23:59N 39°30' E 002°45'0 0.0
2017-Jul-21 23:29N 39°30' E 002°45'0 0.0
2017-Jul-21 22:59N 39°30' E 002°45'0 0.0
2017-Jul-21 22:29N 39°30' E 002°45'0 0.0
2017-Jul-21 21:59N 39°30' E 002°45'0 0.0
2017-Jul-21 21:29N 39°30' E 002°45'0 0.0
2017-Jul-21 20:59N 39°30' E 002°45'0 0.0
2017-Jul-21 20:29N 39°30' E 002°45'0 0.0
2017-Jul-21 19:59N 39°30' E 002°45'0 0.0
2017-Jul-21 19:29N 39°30' E 002°45'0 0.0
2017-Jul-21 18:59N 39°30' E 002°45'0 0.0
2017-Jul-21 18:29N 39°30' E 002°45'0 0.0
2017-Jul-21 17:59N 39°30' E 002°45'0 0.0
2017-Jul-21 17:26N 39°30' E 002°45'0 0.0
2017-Jul-21 16:59N 39°30' E 002°45'0 0.0
2017-Jul-21 16:26N 39°30' E 002°45'0 0.0
2017-Jul-21 15:59N 39°30' E 002°45'0 0.0
2017-Jul-21 15:29N 39°30' E 002°45'0 0.0
2017-Jul-21 14:56N 39°30' E 002°45'0 0.1
2017-Jul-21 14:30N 39°30' E 002°45'1 2.6
2017-Jul-21 14:01N 39°29' E 002°44'4 7.2
2017-Jul-21 13:30N 39°26' E 002°44'6 7.5
2017-Jul-21 12:43N 39°20' E 002°46'2 7.6
2017-Jul-21 12:29N 39°18' E 002°47'3 5.3
2017-Jul-21 11:57N 39°16' E 002°49'3 6.0
2017-Jul-21 11:25N 39°14' E 002°52'6 0.4
2017-Jul-20 20:51N 39°09' E 002°56'0 0.0
2017-Jul-20 13:11N 39°09' E 002°56'1 6.7
2017-Jul-20 12:59N 39°10' E 002°56'4 7.5
2017-Jul-20 12:30N 39°13' E 002°59'4 2.5
2017-Jul-20 10:48N 39°17' E 003°03'  
2017-Jul-17 12:00N 39°16' E 003°03'2 0.5
2017-Jul-17 08:38N 39°17' E 003°02'1 6.0
2017-Jul-17 08:31N 39°17' E 003°01'3 5.3
2017-Jul-17 07:59N 39°20' E 002°59'0 0.2
2017-Jul-17 06:55N 39°20' E 002°59'0 0.0
2017-Jul-17 06:19N 39°20' E 002°59'0 0.0
2017-Jul-17 05:55N 39°20' E 002°59'0 0.0
2017-Jul-17 04:49N 39°20' E 002°59'0 0.0
2017-Jul-17 04:25N 39°20' E 002°59'0 0.0
2017-Jul-17 03:49N 39°20' E 002°59'0 0.0
2017-Jul-17 02:55N 39°20' E 002°59'0 0.0
2017-Jul-17 02:25N 39°20' E 002°59'0 0.0
2017-Jul-17 01:31N 39°20' E 002°59'0 0.0
2017-Jul-17 01:25N 39°20' E 002°59'0 0.0
2017-Jul-17 00:49N 39°20' E 002°59'0 0.0
2017-Jul-17 00:25N 39°20' E 002°59'0 0.0
2017-Jul-16 23:19N 39°20' E 002°59'0 0.0
2017-Jul-16 22:49N 39°20' E 002°59'0 0.0
2017-Jul-16 22:13N 39°20' E 002°59'0 0.0
2017-Jul-16 21:55N 39°20' E 002°59'0 0.0
2017-Jul-16 21:19N 39°20' E 002°59'0 0.0
2017-Jul-16 20:49N 39°20' E 002°59'0 0.0
2017-Jul-16 20:25N 39°20' E 002°59'0 0.0
2017-Jul-16 19:55N 39°20' E 002°59'0 0.0
2017-Jul-16 19:25N 39°20' E 002°59'0 0.0
2017-Jul-16 18:55N 39°20' E 002°59'0 0.0
2017-Jul-16 18:13N 39°20' E 002°59'0 0.0
2017-Jul-16 17:55N 39°20' E 002°59'0 0.0
2017-Jul-16 17:25N 39°20' E 002°59'0 0.0
2017-Jul-16 16:41N 39°20' E 002°59'0 0.0
2017-Jul-16 16:29N 39°20' E 002°59'0 0.0
2017-Jul-16 15:29N 39°20' E 002°59'0 0.0
2017-Jul-16 14:59N 39°20' E 002°59'0 0.0
2017-Jul-16 14:29N 39°20' E 002°59'0 0.0
2017-Jul-16 13:41N 39°20' E 002°59'0 0.0
2017-Jul-16 13:29N 39°20' E 002°59'0 0.0
2017-Jul-16 12:41N 39°20' E 002°59'0 0.0
2017-Jul-16 12:23N 39°20' E 002°59'0 0.0
2017-Jul-16 11:59N 39°20' E 002°59'1 1.7
2017-Jul-16 11:30N 39°20' E 002°58'10 2.8
2017-Jul-16 08:00N 39°23' E 002°46'4 7.4
2017-Jul-16 07:30N 39°26' E 002°43'4 7.7
2017-Jul-16 07:00N 39°30' E 002°43'2 3.6
2017-Jul-16 06:22N 39°32' E 002°43'0 0.0
2017-Jul-16 05:58N 39°32' E 002°43'0 0.0
2017-Jul-16 05:28N 39°32' E 002°43'0 0.0
2017-Jul-16 04:58N 39°32' E 002°43'0 0.0
2017-Jul-16 04:28N 39°32' E 002°43'0 0.0
2017-Jul-16 03:58N 39°32' E 002°43'0 0.0
2017-Jul-16 03:28N 39°32' E 002°43'0 0.0
2017-Jul-16 02:58N 39°32' E 002°43'0 0.0
2017-Jul-16 02:28N 39°32' E 002°43'0 0.0
2017-Jul-16 01:58N 39°32' E 002°43'0 0.0
2017-Jul-16 01:28N 39°32' E 002°43'0 0.0
2017-Jul-16 00:58N 39°32' E 002°43'0 0.0
2017-Jul-16 00:28N 39°32' E 002°43'0 0.0
2017-Jul-15 23:58N 39°32' E 002°43'0 0.0
2017-Jul-15 23:28N 39°32' E 002°43'0 0.0
2017-Jul-15 22:58N 39°32' E 002°43'0 0.0
2017-Jul-15 22:25N 39°32' E 002°43'0 0.0
2017-Jul-15 21:58N 39°32' E 002°43'0 0.0
2017-Jul-15 21:28N 39°32' E 002°43'0 0.0
2017-Jul-15 20:58N 39°32' E 002°43'0 0.0
2017-Jul-15 20:28N 39°32' E 002°43'0 0.0
2017-Jul-15 19:58N 39°32' E 002°43'0 0.0
2017-Jul-15 19:28N 39°32' E 002°43'0 0.0
2017-Jul-15 18:58N 39°32' E 002°43'0 0.0
2017-Jul-15 18:28N 39°32' E 002°43'0 0.0
2017-Jul-15 17:55N 39°32' E 002°43'0 0.0
2017-Jul-15 17:25N 39°32' E 002°43'0 0.0
2017-Jul-15 16:58N 39°32' E 002°43'0 0.0
2017-Jul-15 16:22N 39°32' E 002°43'0 0.0
2017-Jul-15 15:58N 39°32' E 002°43'0 0.0
2017-Jul-15 15:28N 39°32' E 002°43'0 0.0
2017-Jul-15 14:58N 39°32' E 002°43'0 0.0
2017-Jul-15 13:58N 39°32' E 002°43'0 0.0
2017-Jul-15 13:25N 39°32' E 002°43'0 0.0
2017-Jul-15 12:49N 39°32' E 002°43'0 0.0
2017-Jul-15 12:28N 39°32' E 002°43'0 0.0
2017-Jul-15 11:55N 39°32' E 002°43'0 0.0
2017-Jul-15 11:28N 39°32' E 002°43'0 0.0
2017-Jul-15 10:43N 39°32' E 002°43'0 0.1
2017-Jul-15 10:30N 39°32' E 002°43'1 1.2
2017-Jul-15 10:00N 39°32' E 002°44'0 0.0
2017-Jul-15 09:30N 39°32' E 002°44'0 0.0
2017-Jul-15 09:00N 39°32' E 002°44'0 0.4
2017-Jul-15 08:30N 39°31' E 002°44'2 0.2
2017-Jul-15 00:44N 39°30' E 002°45'0 0.0
2017-Jul-15 00:26N 39°30' E 002°45'0 0.0
2017-Jul-14 23:53N 39°30' E 002°45'0 0.0
2017-Jul-14 23:29N 39°30' E 002°45'0 0.0
2017-Jul-14 22:59N 39°30' E 002°45'0 0.0
2017-Jul-14 22:29N 39°30' E 002°45'0 0.0
2017-Jul-14 21:59N 39°30' E 002°45'0 0.0
2017-Jul-14 21:29N 39°30' E 002°45'0 0.0
2017-Jul-14 20:59N 39°30' E 002°45'0 0.0
2017-Jul-14 20:29N 39°30' E 002°45'0 0.0
2017-Jul-14 19:59N 39°30' E 002°45'0 0.0
2017-Jul-14 19:29N 39°30' E 002°45'0 0.0
2017-Jul-14 18:59N 39°30' E 002°45'0 0.0
2017-Jul-14 18:29N 39°30' E 002°45'0 0.0
2017-Jul-14 17:59N 39°30' E 002°45'0 0.0
2017-Jul-14 17:29N 39°30' E 002°45'0 0.0
2017-Jul-14 16:59N 39°30' E 002°45'0 0.0
2017-Jul-14 16:29N 39°30' E 002°45'0 0.0
2017-Jul-14 15:59N 39°30' E 002°45'0 0.0
2017-Jul-14 15:29N 39°30' E 002°45'0 0.0
2017-Jul-14 14:59N 39°30' E 002°45'0 0.0
2017-Jul-14 14:29N 39°30' E 002°45'0 0.0
2017-Jul-14 13:59N 39°30' E 002°45'0 0.0
2017-Jul-14 13:29N 39°30' E 002°45'0 0.0
2017-Jul-14 13:00N 39°30' E 002°45'0 0.4
2017-Jul-14 12:28N 39°30' E 002°45'0 0.0
2017-Jul-14 11:58N 39°30' E 002°45'0 0.9
2017-Jul-14 11:30N 39°30' E 002°44'3 6.1
2017-Jul-14 11:00N 39°28' E 002°41'2 4.5
2017-Jul-14 10:30N 39°28' E 002°38'3 6.3
2017-Jul-14 10:00N 39°27' E 002°34'5 5.7
2017-Jul-14 09:08N 39°28' E 002°28'1 5.1
2017-Jul-14 08:54N 39°29' E 002°28'2 0.1
2017-Jul-13 18:39N 39°31' E 002°28'0 0.0
2017-Jul-13 18:21N 39°31' E 002°28'0 0.0
2017-Jul-13 16:15N 39°31' E 002°28'4 1.0
2017-Jul-13 12:04N 39°27' E 002°31'0 6.6
2017-Jul-13 12:00N 39°28' E 002°31'1 0.6
2017-Jul-13 10:40N 39°28' E 002°31'1 7.1
2017-Jul-13 10:30N 39°29' E 002°33'4 7.4
2017-Jul-13 10:00N 39°32' E 002°36'3 5.4
2017-Jul-13 09:30N 39°34' E 002°38'0 0.2
2017-Jul-13 09:00N 39°34' E 002°38'0 0.0
2017-Jul-13 08:30N 39°34' E 002°38'0 0.0
2017-Jul-13 08:00N 39°34' E 002°38'0 0.0
2017-Jul-13 07:30N 39°34' E 002°38'0 0.0
2017-Jul-13 07:00N 39°34' E 002°38'0 0.0
2017-Jul-13 06:30N 39°34' E 002°38'0 0.0
2017-Jul-13 06:00N 39°34' E 002°38'0 0.0
2017-Jul-13 05:30N 39°34' E 002°38'0 0.0
2017-Jul-13 05:00N 39°34' E 002°38'0 0.0
2017-Jul-13 04:30N 39°34' E 002°38'0 0.0
2017-Jul-13 04:00N 39°34' E 002°38'0 0.0
2017-Jul-13 03:30N 39°34' E 002°38'0 0.0
2017-Jul-13 03:00N 39°34' E 002°38'0 0.0
2017-Jul-13 02:30N 39°34' E 002°38'0 0.0
2017-Jul-13 02:00N 39°34' E 002°38'0 0.0
2017-Jul-13 01:30N 39°34' E 002°38'0 0.0
2017-Jul-13 01:00N 39°34' E 002°38'0 0.0
2017-Jul-13 00:30N 39°34' E 002°38'0 0.0
2017-Jul-13 00:00N 39°34' E 002°38'0 0.0
2017-Jul-12 23:30N 39°34' E 002°38'0 0.0
2017-Jul-12 23:00N 39°34' E 002°38'0 0.0
2017-Jul-12 22:30N 39°34' E 002°38'0 0.0
2017-Jul-12 22:00N 39°34' E 002°38'0 0.0
2017-Jul-12 21:30N 39°34' E 002°38'0 0.0
2017-Jul-12 21:00N 39°34' E 002°38'0 0.0
2017-Jul-12 20:30N 39°34' E 002°38'  
Track history (hours):
 
Tides and Currents Weather Stations Pressure Air Temp Water Temp Dewpoint Dewpoint Depression Visibility Wind Speed Wind Dir Waves Ship Positions

Thaleia

Last reported at 2017-Jul-22 20:26 UTC. Time now 2017-Jul-22 20:30 UTC.
Position N 39°30' E 002°45'.

Length 15 m.

Type: Sailing vessel. MMSI: 230939950.

Date/timePositionNaut miles runAvg speedWind from/ knotsBaromVisibWave heightAir tempDewpointWater temp
2017-Jul-22 20:26N 39°30' E 002°45'0 0.0
2017-Jul-22 19:59N 39°30' E 002°45'0 0.0
2017-Jul-22 19:29N 39°30' E 002°45'0 0.0
2017-Jul-22 18:59N 39°30' E 002°45'0 0.0
2017-Jul-22 18:29N 39°30' E 002°45'0 0.0
2017-Jul-22 17:59N 39°30' E 002°45'0 0.0
2017-Jul-22 17:29N 39°30' E 002°45'0 0.0
2017-Jul-22 16:59N 39°30' E 002°45'0 0.0
2017-Jul-22 16:26N 39°30' E 002°45'0 0.0
2017-Jul-22 15:59N 39°30' E 002°45'0 0.0
2017-Jul-22 15:29N 39°30' E 002°45'0 0.0
2017-Jul-22 14:59N 39°30' E 002°45'0 0.0
2017-Jul-22 13:59N 39°30' E 002°45'0 0.0
2017-Jul-22 13:26N 39°30' E 002°45'0 0.0
2017-Jul-22 12:59N 39°30' E 002°45'0 0.0
2017-Jul-22 12:26N 39°30' E 002°45'0 0.0
2017-Jul-22 11:59N 39°30' E 002°45'0 0.0
2017-Jul-22 11:26N 39°30' E 002°45'0 0.0
2017-Jul-22 10:59N 39°30' E 002°45'0 0.0
2017-Jul-22 10:29N 39°30' E 002°45'0 0.0
2017-Jul-22 09:59N 39°30' E 002°45'0 0.0
2017-Jul-22 09:29N 39°30' E 002°45'0 0.0
2017-Jul-22 08:59N 39°30' E 002°45'0 0.0
2017-Jul-22 08:29N 39°30' E 002°45'0 0.0
2017-Jul-22 07:59N 39°30' E 002°45'0 0.0
2017-Jul-22 07:26N 39°30' E 002°45'0 0.0
2017-Jul-22 06:56N 39°30' E 002°45'0 0.0
2017-Jul-22 06:29N 39°30' E 002°45'0 0.0
2017-Jul-22 05:59N 39°30' E 002°45'0 0.0
2017-Jul-22 05:26N 39°30' E 002°45'0 0.0
2017-Jul-22 04:59N 39°30' E 002°45'0 0.0
2017-Jul-22 04:29N 39°30' E 002°45'0 0.0
2017-Jul-22 03:59N 39°30' E 002°45'0 0.0
2017-Jul-22 03:29N 39°30' E 002°45'0 0.0
2017-Jul-22 02:56N 39°30' E 002°45'0 0.0
2017-Jul-22 02:29N 39°30' E 002°45'0 0.0
2017-Jul-22 01:59N 39°30' E 002°45'0 0.0
2017-Jul-22 01:29N 39°30' E 002°45'0 0.0
2017-Jul-22 00:59N 39°30' E 002°45'0 0.0
2017-Jul-22 00:29N 39°30' E 002°45'0 0.0
2017-Jul-21 23:59N 39°30' E 002°45'0 0.0
2017-Jul-21 23:29N 39°30' E 002°45'0 0.0
2017-Jul-21 22:59N 39°30' E 002°45'0 0.0
2017-Jul-21 22:29N 39°30' E 002°45'0 0.0
2017-Jul-21 21:59N 39°30' E 002°45'0 0.0
2017-Jul-21 21:29N 39°30' E 002°45'0 0.0
2017-Jul-21 20:59N 39°30' E 002°45'0 0.0
2017-Jul-21 20:29N 39°30' E 002°45'0 0.0
2017-Jul-21 19:59N 39°30' E 002°45'0 0.0
2017-Jul-21 19:29N 39°30' E 002°45'0 0.0
2017-Jul-21 18:59N 39°30' E 002°45'0 0.0
2017-Jul-21 18:29N 39°30' E 002°45'0 0.0
2017-Jul-21 17:59N 39°30' E 002°45'0 0.0
2017-Jul-21 17:26N 39°30' E 002°45'0 0.0
2017-Jul-21 16:59N 39°30' E 002°45'0 0.0
2017-Jul-21 16:26N 39°30' E 002°45'0 0.0
2017-Jul-21 15:59N 39°30' E 002°45'0 0.0
2017-Jul-21 15:29N 39°30' E 002°45'0 0.0
2017-Jul-21 14:56N 39°30' E 002°45'0 0.1
2017-Jul-21 14:30N 39°30' E 002°45'1 2.6
2017-Jul-21 14:01N 39°29' E 002°44'4 7.2
2017-Jul-21 13:30N 39°26' E 002°44'6 7.5
2017-Jul-21 12:43N 39°20' E 002°46'2 7.6
2017-Jul-21 12:29N 39°18' E 002°47'3 5.3
2017-Jul-21 11:57N 39°16' E 002°49'3 6.0
2017-Jul-21 11:25N 39°14' E 002°52'6 0.4
2017-Jul-20 20:51N 39°09' E 002°56'0 0.0
2017-Jul-20 13:11N 39°09' E 002°56'1 6.7
2017-Jul-20 12:59N 39°10' E 002°56'4 7.5
2017-Jul-20 12:30N 39°13' E 002°59'4 2.5
2017-Jul-20 10:48N 39°17' E 003°03'  
2017-Jul-17 12:00N 39°16' E 003°03'2 0.5
2017-Jul-17 08:38N 39°17' E 003°02'1 6.0
2017-Jul-17 08:31N 39°17' E 003°01'3 5.3
2017-Jul-17 07:59N 39°20' E 002°59'0 0.2
2017-Jul-17 06:55N 39°20' E 002°59'0 0.0
2017-Jul-17 06:19N 39°20' E 002°59'0 0.0
2017-Jul-17 05:55N 39°20' E 002°59'0 0.0
2017-Jul-17 04:49N 39°20' E 002°59'0 0.0
2017-Jul-17 04:25N 39°20' E 002°59'0 0.0
2017-Jul-17 03:49N 39°20' E 002°59'0 0.0
2017-Jul-17 02:55N 39°20' E 002°59'0 0.0
2017-Jul-17 02:25N 39°20' E 002°59'0 0.0
2017-Jul-17 01:31N 39°20' E 002°59'0 0.0
2017-Jul-17 01:25N 39°20' E 002°59'0 0.0
2017-Jul-17 00:49N 39°20' E 002°59'0 0.0
2017-Jul-17 00:25N 39°20' E 002°59'0 0.0
2017-Jul-16 23:19N 39°20' E 002°59'0 0.0
2017-Jul-16 22:49N 39°20' E 002°59'0 0.0
2017-Jul-16 22:13N 39°20' E 002°59'0 0.0
2017-Jul-16 21:55N 39°20' E 002°59'0 0.0
2017-Jul-16 21:19N 39°20' E 002°59'0 0.0
2017-Jul-16 20:49N 39°20' E 002°59'0 0.0
2017-Jul-16 20:25N 39°20' E 002°59'0 0.0
2017-Jul-16 19:55N 39°20' E 002°59'0 0.0
2017-Jul-16 19:25N 39°20' E 002°59'0 0.0
2017-Jul-16 18:55N 39°20' E 002°59'0 0.0
2017-Jul-16 18:13N 39°20' E 002°59'0 0.0
2017-Jul-16 17:55N 39°20' E 002°59'0 0.0
2017-Jul-16 17:25N 39°20' E 002°59'0 0.0
2017-Jul-16 16:41N 39°20' E 002°59'0 0.0
2017-Jul-16 16:29N 39°20' E 002°59'0 0.0
2017-Jul-16 15:29N 39°20' E 002°59'0 0.0
2017-Jul-16 14:59N 39°20' E 002°59'0 0.0
2017-Jul-16 14:29N 39°20' E 002°59'0 0.0
2017-Jul-16 13:41N 39°20' E 002°59'0 0.0
2017-Jul-16 13:29N 39°20' E 002°59'0 0.0
2017-Jul-16 12:41N 39°20' E 002°59'0 0.0
2017-Jul-16 12:23N 39°20' E 002°59'0 0.0
2017-Jul-16 11:59N 39°20' E 002°59'1 1.7
2017-Jul-16 11:30N 39°20' E 002°58'10 2.8
2017-Jul-16 08:00N 39°23' E 002°46'4 7.4
2017-Jul-16 07:30N 39°26' E 002°43'4 7.7
2017-Jul-16 07:00N 39°30' E 002°43'2 3.6
2017-Jul-16 06:22N 39°32' E 002°43'0 0.0
2017-Jul-16 05:58N 39°32' E 002°43'0 0.0
2017-Jul-16 05:28N 39°32' E 002°43'0 0.0
2017-Jul-16 04:58N 39°32' E 002°43'0 0.0
2017-Jul-16 04:28N 39°32' E 002°43'0 0.0
2017-Jul-16 03:58N 39°32' E 002°43'0 0.0
2017-Jul-16 03:28N 39°32' E 002°43'0 0.0
2017-Jul-16 02:58N 39°32' E 002°43'0 0.0
2017-Jul-16 02:28N 39°32' E 002°43'0 0.0
2017-Jul-16 01:58N 39°32' E 002°43'0 0.0
2017-Jul-16 01:28N 39°32' E 002°43'0 0.0
2017-Jul-16 00:58N 39°32' E 002°43'0 0.0
2017-Jul-16 00:28N 39°32' E 002°43'0 0.0
2017-Jul-15 23:58N 39°32' E 002°43'0 0.0
2017-Jul-15 23:28N 39°32' E 002°43'0 0.0
2017-Jul-15 22:58N 39°32' E 002°43'0 0.0
2017-Jul-15 22:25N 39°32' E 002°43'0 0.0
2017-Jul-15 21:58N 39°32' E 002°43'0 0.0
2017-Jul-15 21:28N 39°32' E 002°43'0 0.0
2017-Jul-15 20:58N 39°32' E 002°43'0 0.0
2017-Jul-15 20:28N 39°32' E 002°43'0 0.0
2017-Jul-15 19:58N 39°32' E 002°43'0 0.0
2017-Jul-15 19:28N 39°32' E 002°43'0 0.0
2017-Jul-15 18:58N 39°32' E 002°43'0 0.0
2017-Jul-15 18:28N 39°32' E 002°43'0 0.0
2017-Jul-15 17:55N 39°32' E 002°43'0 0.0
2017-Jul-15 17:25N 39°32' E 002°43'0 0.0
2017-Jul-15 16:58N 39°32' E 002°43'0 0.0
2017-Jul-15 16:22N 39°32' E 002°43'0 0.0
2017-Jul-15 15:58N 39°32' E 002°43'0 0.0
2017-Jul-15 15:28N 39°32' E 002°43'0 0.0
2017-Jul-15 14:58N 39°32' E 002°43'0 0.0
2017-Jul-15 13:58N 39°32' E 002°43'0 0.0
2017-Jul-15 13:25N 39°32' E 002°43'0 0.0
2017-Jul-15 12:49N 39°32' E 002°43'0 0.0
2017-Jul-15 12:28N 39°32' E 002°43'0 0.0
2017-Jul-15 11:55N 39°32' E 002°43'0 0.0
2017-Jul-15 11:28N 39°32' E 002°43'0 0.0
2017-Jul-15 10:43N 39°32' E 002°43'0 0.1
2017-Jul-15 10:30N 39°32' E 002°43'1 1.2
2017-Jul-15 10:00N 39°32' E 002°44'0 0.0
2017-Jul-15 09:30N 39°32' E 002°44'0 0.0
2017-Jul-15 09:00N 39°32' E 002°44'0 0.4
2017-Jul-15 08:30N 39°31' E 002°44'2 0.2
2017-Jul-15 00:44N 39°30' E 002°45'0 0.0
2017-Jul-15 00:26N 39°30' E 002°45'0 0.0
2017-Jul-14 23:53N 39°30' E 002°45'0 0.0
2017-Jul-14 23:29N 39°30' E 002°45'0 0.0
2017-Jul-14 22:59N 39°30' E 002°45'0 0.0
2017-Jul-14 22:29N 39°30' E 002°45'0 0.0
2017-Jul-14 21:59N 39°30' E 002°45'0 0.0
2017-Jul-14 21:29N 39°30' E 002°45'0 0.0
2017-Jul-14 20:59N 39°30' E 002°45'0 0.0
2017-Jul-14 20:29N 39°30' E 002°45'0 0.0
2017-Jul-14 19:59N 39°30' E 002°45'0 0.0
2017-Jul-14 19:29N 39°30' E 002°45'0 0.0
2017-Jul-14 18:59N 39°30' E 002°45'0 0.0
2017-Jul-14 18:29N 39°30' E 002°45'0 0.0
2017-Jul-14 17:59N 39°30' E 002°45'0 0.0
2017-Jul-14 17:29N 39°30' E 002°45'0 0.0
2017-Jul-14 16:59N 39°30' E 002°45'0 0.0
2017-Jul-14 16:29N 39°30' E 002°45'0 0.0
2017-Jul-14 15:59N 39°30' E 002°45'0 0.0
2017-Jul-14 15:29N 39°30' E 002°45'0 0.0
2017-Jul-14 14:59N 39°30' E 002°45'0 0.0
2017-Jul-14 14:29N 39°30' E 002°45'0 0.0
2017-Jul-14 13:59N 39°30' E 002°45'0 0.0
2017-Jul-14 13:29N 39°30' E 002°45'0 0.0
2017-Jul-14 13:00N 39°30' E 002°45'0 0.4
2017-Jul-14 12:28N 39°30' E 002°45'0 0.0
2017-Jul-14 11:58N 39°30' E 002°45'0 0.9
2017-Jul-14 11:30N 39°30' E 002°44'3 6.1
2017-Jul-14 11:00N 39°28' E 002°41'2 4.5
2017-Jul-14 10:30N 39°28' E 002°38'3 6.3
2017-Jul-14 10:00N 39°27' E 002°34'5 5.7
2017-Jul-14 09:08N 39°28' E 002°28'1 5.1
2017-Jul-14 08:54N 39°29' E 002°28'2 0.1
2017-Jul-13 18:39N 39°31' E 002°28'0 0.0
2017-Jul-13 18:21N 39°31' E 002°28'0 0.0
2017-Jul-13 16:15N 39°31' E 002°28'4 1.0
2017-Jul-13 12:04N 39°27' E 002°31'0 6.6
2017-Jul-13 12:00N 39°28' E 002°31'1 0.6
2017-Jul-13 10:40N 39°28' E 002°31'1 7.1
2017-Jul-13 10:30N 39°29' E 002°33'4 7.4
2017-Jul-13 10:00N 39°32' E 002°36'3 5.4
2017-Jul-13 09:30N 39°34' E 002°38'0 0.2
2017-Jul-13 09:00N 39°34' E 002°38'0 0.0
2017-Jul-13 08:30N 39°34' E 002°38'0 0.0
2017-Jul-13 08:00N 39°34' E 002°38'0 0.0
2017-Jul-13 07:30N 39°34' E 002°38'0 0.0
2017-Jul-13 07:00N 39°34' E 002°38'0 0.0
2017-Jul-13 06:30N 39°34' E 002°38'0 0.0
2017-Jul-13 06:00N 39°34' E 002°38'0 0.0
2017-Jul-13 05:30N 39°34' E 002°38'0 0.0
2017-Jul-13 05:00N 39°34' E 002°38'0 0.0
2017-Jul-13 04:30N 39°34' E 002°38'0 0.0
2017-Jul-13 04:00N 39°34' E 002°38'0 0.0
2017-Jul-13 03:30N 39°34' E 002°38'0 0.0
2017-Jul-13 03:00N 39°34' E 002°38'0 0.0
2017-Jul-13 02:30N 39°34' E 002°38'0 0.0
2017-Jul-13 02:00N 39°34' E 002°38'0 0.0
2017-Jul-13 01:30N 39°34' E 002°38'0 0.0
2017-Jul-13 01:00N 39°34' E 002°38'0 0.0
2017-Jul-13 00:30N 39°34' E 002°38'0 0.0
2017-Jul-13 00:00N 39°34' E 002°38'0 0.0
2017-Jul-12 23:30N 39°34' E 002°38'0 0.0
2017-Jul-12 23:00N 39°34' E 002°38'0 0.0
2017-Jul-12 22:30N 39°34' E 002°38'0 0.0
2017-Jul-12 22:00N 39°34' E 002°38'0 0.0
2017-Jul-12 21:30N 39°34' E 002°38'0 0.0
2017-Jul-12 21:00N 39°34' E 002°38'0 0.0
2017-Jul-12 20:30N 39°34' E 002°38'  

Dump ship's entire track history